createdAt,value
2019-05-26T00:01:36.283Z,98406.24
2019-05-26T00:04:10.315Z,98403.47
2019-05-26T00:06:44.476Z,98407.37
2019-05-26T00:09:19.768Z,98414.56
2019-05-26T00:11:53.648Z,98411.28
2019-05-26T00:14:27.853Z,98409.56
2019-05-26T00:17:01.713Z,98411.80
2019-05-26T00:19:35.799Z,98412.34
2019-05-26T00:22:09.883Z,98408.77
2019-05-26T00:24:43.923Z,98410.15
2019-05-26T00:27:17.939Z,98406.31
2019-05-26T00:29:51.995Z,98409.89
2019-05-26T00:32:25.959Z,98413.25
2019-05-26T00:35:00.354Z,98413.25
2019-05-26T00:37:48.487Z,98413.83
2019-05-26T00:40:10.770Z,98412.99
2019-05-26T00:42:44.702Z,98418.53
2019-05-26T00:45:18.859Z,98432.14
2019-05-26T00:47:52.910Z,98423.28
2019-05-26T00:50:27.452Z,98428.82
2019-05-26T00:53:01.248Z,98441.30
2019-05-26T00:55:35.465Z,98442.43
2019-05-26T00:58:09.479Z,98441.84
2019-05-26T01:00:44.680Z,98453.27
2019-05-26T01:03:18.873Z,98457.68
2019-05-26T01:05:53.348Z,98466.00
2019-05-26T01:08:27.465Z,98475.70
2019-05-26T01:11:01.865Z,98472.93
2019-05-26T01:13:36.107Z,98481.25
2019-05-26T01:16:10.430Z,98484.60
2019-05-26T01:18:44.617Z,98490.14
2019-05-26T01:21:18.896Z,98494.30
2019-05-26T01:23:52.726Z,98487.92
2019-05-26T01:26:27.230Z,98493.14
2019-05-26T01:29:01.162Z,98499.02
2019-05-26T01:31:35.546Z,98492.66
2019-05-26T01:34:09.332Z,98499.59
2019-05-26T01:36:43.765Z,98501.79
2019-05-26T01:39:17.633Z,98508.72
2019-05-26T01:41:52.004Z,98512.88
2019-05-26T01:44:26.007Z,98518.42
2019-05-26T01:47:00.080Z,98517.03
2019-05-26T01:49:34.180Z,98518.42
2019-05-26T01:52:08.324Z,98527.58
2019-05-26T01:54:42.429Z,98526.52
2019-05-26T01:57:16.746Z,98523.74
2019-05-26T01:59:50.691Z,98522.58
2019-05-26T02:02:24.672Z,98524.55
2019-05-26T02:04:58.718Z,98530.91
2019-05-26T02:07:32.855Z,98537.61
2019-05-26T02:10:07.634Z,98538.41
2019-05-26T02:12:42.121Z,98535.38
2019-05-26T02:15:16.609Z,98539.54
2019-05-26T02:17:51.124Z,98542.31
2019-05-26T02:20:25.607Z,98551.47
2019-05-26T02:22:59.886Z,98555.63
2019-05-26T02:25:33.999Z,98560.59
2019-05-26T02:28:08.111Z,98568.91
2019-05-26T02:30:42.082Z,98570.88
2019-05-26T02:33:16.085Z,98571.20
2019-05-26T02:35:50.653Z,98569.49
2019-05-26T02:38:26.339Z,98568.91
2019-05-26T02:41:00.667Z,98567.84
2019-05-26T02:43:34.634Z,98569.23
2019-05-26T02:46:09.421Z,98576.97
2019-05-26T02:48:43.478Z,98576.42
2019-05-26T02:51:17.838Z,98580.58
2019-05-26T02:53:52.079Z,98576.17
2019-05-26T02:56:26.698Z,98583.68
2019-05-26T02:59:00.750Z,98588.91
2019-05-26T03:01:35.327Z,98585.30
2019-05-26T03:04:09.758Z,98583.09
2019-05-26T03:06:45.499Z,98579.75
2019-05-26T03:09:23.563Z,98580.91
2019-05-26T03:11:58.420Z,98581.71
2019-05-26T03:14:36.634Z,98586.45
2019-05-26T03:17:10.756Z,98589.77
2019-05-26T03:19:46.814Z,98590.61
2019-05-26T03:22:24.335Z,98589.22
2019-05-26T03:24:59.726Z,98584.23
2019-05-26T03:27:34.057Z,98585.61
2019-05-26T03:30:08.099Z,98589.77
2019-05-26T03:32:42.422Z,98593.93
2019-05-26T03:35:16.549Z,98595.31
2019-05-26T03:37:50.866Z,98595.05
2019-05-26T03:40:24.856Z,98598.67
2019-05-26T03:42:59.089Z,98593.67
2019-05-26T03:46:17.897Z,98596.44
2019-05-26T03:48:53.013Z,98596.44
2019-05-26T03:51:27.262Z,98605.02
2019-05-26T03:54:01.246Z,98606.15
2019-05-26T03:56:36.145Z,98603.95
2019-05-26T03:59:10.638Z,98606.15
2019-05-26T04:01:44.808Z,98602.56
2019-05-26T04:04:19.152Z,98603.63
2019-05-26T04:06:53.183Z,98603.63
2019-05-26T04:09:27.414Z,98601.98
2019-05-26T04:12:01.400Z,98604.77
2019-05-26T04:14:35.376Z,98614.47
2019-05-26T04:17:09.661Z,98621.40
2019-05-26T04:19:43.804Z,98624.43
2019-05-26T04:22:17.995Z,98622.23
2019-05-26T04:24:52.134Z,98624.17
2019-05-26T04:27:26.224Z,98618.88
2019-05-26T04:30:02.304Z,98612.53
2019-05-26T04:32:37.206Z,98606.15
2019-05-26T04:35:11.491Z,98609.18
2019-05-26T04:37:45.528Z,98607.80
2019-05-26T04:40:27.315Z,98607.80
2019-05-26T04:42:55.605Z,98603.63
2019-05-26T04:45:29.752Z,98608.05
2019-05-26T04:48:04.318Z,98600.31
2019-05-26T04:50:38.333Z,98596.70
2019-05-26T04:53:12.769Z,98596.70
2019-05-26T04:55:46.800Z,98589.77
2019-05-26T04:58:21.161Z,98591.41
2019-05-26T05:00:55.292Z,98592.80
2019-05-26T05:03:29.690Z,98594.19
2019-05-26T05:06:03.710Z,98594.19
2019-05-26T05:08:37.767Z,98591.67
2019-05-26T05:11:11.647Z,98590.03
2019-05-26T05:13:45.941Z,98589.45
2019-05-26T05:16:20.093Z,98587.26
2019-05-26T05:18:54.212Z,98582.52
2019-05-26T05:21:28.296Z,98591.67
2019-05-26T05:24:02.707Z,98580.33
2019-05-26T05:26:36.866Z,98583.36
2019-05-26T05:29:10.986Z,98580.00
2019-05-26T05:31:44.967Z,98582.52
2019-05-26T05:34:19.280Z,98583.36
2019-05-26T05:36:53.307Z,98580.58
2019-05-26T05:39:27.253Z,98584.16
2019-05-26T05:42:01.515Z,98581.97
2019-05-26T05:44:35.681Z,98578.62
2019-05-26T05:47:10.996Z,98586.36
2019-05-26T05:49:45.094Z,98580.81
2019-05-26T05:52:19.392Z,98583.36
2019-05-26T05:54:53.539Z,98578.62
2019-05-26T05:57:27.641Z,98576.10
2019-05-26T06:00:02.395Z,98587.20
2019-05-26T06:02:37.865Z,98581.07
2019-05-26T06:05:12.299Z,98584.65
2019-05-26T06:07:46.384Z,98582.72
2019-05-26T06:10:22.168Z,98577.17
2019-05-26T06:12:56.260Z,98579.94
2019-05-26T06:15:30.581Z,98571.62
2019-05-26T06:18:04.846Z,98575.20
2019-05-26T06:20:39.571Z,98567.72
2019-05-26T06:23:13.629Z,98563.56
2019-05-26T06:25:47.937Z,98563.56
2019-05-26T06:28:21.756Z,98550.50
2019-05-26T06:30:55.983Z,98549.92
2019-05-26T06:33:29.791Z,98547.16
2019-05-26T06:36:04.207Z,98548.54
2019-05-26T06:38:38.211Z,98546.02
2019-05-26T06:41:12.217Z,98547.99
2019-05-26T06:43:46.112Z,98546.02
2019-05-26T06:46:20.132Z,98540.48
2019-05-26T06:48:54.060Z,98543.25
2019-05-26T06:51:28.392Z,98529.97
2019-05-26T06:54:02.501Z,98527.42
2019-05-26T06:56:36.878Z,98532.42
2019-05-26T06:59:11.113Z,98524.91
2019-05-26T07:01:45.488Z,98525.16
2019-05-26T07:04:19.331Z,98517.39
2019-05-26T07:06:53.637Z,98515.45
2019-05-26T07:09:27.932Z,98505.75
2019-05-26T07:12:02.132Z,98513.48
2019-05-26T07:14:36.319Z,98517.09
2019-05-26T07:17:10.472Z,98515.71
2019-05-26T07:19:44.425Z,98509.00
2019-05-26T07:22:18.888Z,98511.23
2019-05-26T07:24:52.866Z,98508.69
2019-05-26T07:27:27.147Z,98502.07
2019-05-26T07:30:01.471Z,98500.36
2019-05-26T07:32:36.676Z,98498.42
2019-05-26T07:35:11.018Z,98488.72
2019-05-26T07:37:45.930Z,98482.59
2019-05-26T07:40:20.253Z,98471.50
2019-05-26T07:42:54.544Z,98474.27
2019-05-26T07:45:28.514Z,98466.21
2019-05-26T07:48:02.478Z,98463.69
2019-05-26T07:50:36.900Z,98461.72
2019-05-26T07:53:10.822Z,98460.34
2019-05-26T07:55:44.872Z,98452.11
2019-05-26T07:58:18.917Z,98448.95
2019-05-26T08:00:53.136Z,98443.09
2019-05-26T08:03:27.201Z,98436.88
2019-05-26T08:06:01.475Z,98433.72
2019-05-26T08:08:35.428Z,98427.48
2019-05-26T08:11:09.476Z,98425.02
2019-05-26T08:13:43.591Z,98419.90
2019-05-26T08:16:18.020Z,98416.61
2019-05-26T08:18:52.266Z,98407.57
2019-05-26T08:21:26.128Z,98410.10
2019-05-26T08:24:00.505Z,98400.43
2019-05-26T08:26:34.674Z,98403.04
2019-05-26T08:29:08.917Z,98405.16
2019-05-26T08:31:43.089Z,98394.67
2019-05-26T08:34:17.712Z,98385.98
2019-05-26T08:36:51.927Z,98385.20
2019-05-26T08:39:26.698Z,98376.28
2019-05-26T08:42:00.620Z,98369.81
2019-05-26T08:44:34.959Z,98372.34
2019-05-26T08:47:09.150Z,98367.98
2019-05-26T08:49:43.410Z,98366.10
2019-05-26T08:52:17.674Z,98356.55
2019-05-26T08:54:51.492Z,98363.92
2019-05-26T08:57:25.538Z,98347.20
2019-05-26T08:59:59.890Z,98347.47
2019-05-26T09:02:33.999Z,98350.73
2019-05-26T09:05:09.155Z,98340.05
2019-05-26T09:07:44.160Z,98337.31
2019-05-26T09:10:18.553Z,98343.86
2019-05-26T09:13:00.820Z,98332.65
2019-05-26T09:15:28.882Z,98326.08
2019-05-26T09:18:02.771Z,98321.63
2019-05-26T09:20:36.713Z,98316.16
2019-05-26T09:23:10.740Z,98318.62
2019-05-26T09:25:46.718Z,98314.48
2019-05-26T09:28:21.002Z,98317.58
2019-05-26T09:30:57.040Z,98317.80
2019-05-26T09:33:32.489Z,98324.06
2019-05-26T09:36:07.104Z,98310.89
2019-05-26T09:38:45.029Z,98309.52
2019-05-26T09:41:20.756Z,98312.48
2019-05-26T09:44:00.905Z,98305.61
2019-05-26T09:46:35.198Z,98301.78
2019-05-26T09:49:10.627Z,98301.28
2019-05-26T09:51:44.866Z,98304.86
2019-05-26T09:54:19.042Z,98303.75
2019-05-26T09:56:53.351Z,98296.64
2019-05-26T09:59:27.383Z,98302.09
2019-05-26T10:02:01.465Z,98300.47
2019-05-26T10:04:35.504Z,98290.33
2019-05-26T10:07:14.887Z,98284.31
2019-05-26T10:09:46.352Z,98298.23
2019-05-26T10:12:20.603Z,98296.80
2019-05-26T10:14:55.279Z,98285.20
2019-05-26T10:17:32.535Z,98282.42
2019-05-26T10:20:07.352Z,98279.38
2019-05-26T10:22:42.308Z,98276.06
2019-05-26T10:25:16.757Z,98278.30
2019-05-26T10:27:50.764Z,98273.66
2019-05-26T10:30:24.981Z,98277.48
2019-05-26T10:32:59.052Z,98271.16
2019-05-26T10:35:33.083Z,98262.64
2019-05-26T10:38:08.152Z,98261.31
2019-05-26T10:40:41.994Z,98256.37
2019-05-26T10:43:16.856Z,98245.67
2019-05-26T10:45:50.821Z,98248.14
2019-05-26T10:48:24.984Z,98247.87
2019-05-26T10:50:58.906Z,98249.50
2019-05-26T10:53:32.496Z,98237.45
2019-05-26T10:56:06.824Z,98229.49
2019-05-26T10:58:41.056Z,98236.86
2019-05-26T11:01:14.876Z,98233.01
2019-05-26T11:03:48.964Z,98229.06
2019-05-26T11:06:23.076Z,98238.03
2019-05-26T11:08:57.315Z,98234.19
2019-05-26T11:11:31.244Z,98235.29
2019-05-26T11:14:05.569Z,98228.17
2019-05-26T11:16:40.016Z,98227.09
2019-05-26T11:19:14.464Z,98233.08
2019-05-26T11:21:48.711Z,98224.87
2019-05-26T11:24:22.861Z,98224.64
2019-05-26T11:27:08.504Z,98223.77
2019-05-26T11:29:33.089Z,98227.88
2019-05-26T11:32:07.159Z,98225.13
2019-05-26T11:34:41.310Z,98225.13
2019-05-26T11:37:15.118Z,98223.21
2019-05-26T11:39:49.070Z,98218.83
2019-05-26T11:42:23.214Z,98217.18
2019-05-26T11:44:57.525Z,98217.22
2019-05-26T11:47:31.574Z,98217.28
2019-05-26T11:50:06.161Z,98217.78
2019-05-26T11:52:40.305Z,98228.17
2019-05-26T11:55:14.887Z,98231.45
2019-05-26T11:57:49.114Z,98222.16
2019-05-26T12:00:23.345Z,98220.52
2019-05-26T12:03:00.500Z,98224.89
2019-05-26T12:05:33.236Z,98235.75
2019-05-26T12:08:07.455Z,98238.10
2019-05-26T12:10:41.385Z,98234.77
2019-05-26T12:13:15.715Z,98237.47
2019-05-26T12:15:49.922Z,98245.48
2019-05-26T12:18:24.007Z,98238.70
2019-05-26T12:20:58.466Z,98234.08
2019-05-26T12:23:32.689Z,98237.55
2019-05-26T12:26:06.832Z,98240.80
2019-05-26T12:28:40.688Z,98240.54
2019-05-26T12:31:14.900Z,98245.16
2019-05-26T12:33:49.769Z,98241.02
2019-05-26T12:36:24.138Z,98241.75
2019-05-26T12:38:58.565Z,98248.41
2019-05-26T12:41:36.402Z,98247.38
2019-05-26T12:44:10.899Z,98253.02
2019-05-26T12:46:44.608Z,98255.08
2019-05-26T12:49:18.751Z,98258.26
2019-05-26T12:51:52.992Z,98254.30
2019-05-26T12:54:26.902Z,98253.40
2019-05-26T12:57:01.089Z,98253.59
2019-05-26T12:59:35.135Z,98261.70
2019-05-26T13:02:10.547Z,98252.89
2019-05-26T13:04:44.606Z,98254.34
2019-05-26T13:07:18.585Z,98254.75
2019-05-26T13:09:52.809Z,98260.59
2019-05-26T13:12:28.192Z,98260.58
2019-05-26T13:15:05.783Z,98263.01
2019-05-26T13:17:38.168Z,98263.58
2019-05-26T13:20:13.090Z,98268.55
2019-05-26T13:22:47.194Z,98270.52
2019-05-26T13:25:22.635Z,98267.00
2019-05-26T13:27:56.515Z,98272.78
2019-05-26T13:30:31.234Z,98270.65
2019-05-26T13:33:05.353Z,98269.25
2019-05-26T13:35:39.609Z,98278.28
2019-05-26T13:38:13.861Z,98275.41
2019-05-26T13:40:48.060Z,98278.83
2019-05-26T13:43:23.379Z,98277.21
2019-05-26T13:45:59.555Z,98279.89
2019-05-26T13:48:33.706Z,98285.36
2019-05-26T13:51:08.267Z,98284.70
2019-05-26T13:53:42.483Z,98289.03
2019-05-26T13:56:16.460Z,98287.22
2019-05-26T13:58:50.551Z,98288.01
2019-05-26T14:01:24.842Z,98287.34
2019-05-26T14:03:59.337Z,98291.70
2019-05-26T14:06:33.611Z,98294.88
2019-05-26T14:09:10.095Z,98302.63
2019-05-26T14:11:44.496Z,98303.97
2019-05-26T14:14:18.611Z,98297.95
2019-05-26T14:16:54.135Z,98305.89
2019-05-26T14:19:30.676Z,98305.84
2019-05-26T14:22:05.087Z,98310.43
2019-05-26T14:24:52.877Z,98309.92
2019-05-26T14:27:15.044Z,98319.11
2019-05-26T14:29:49.178Z,98320.98
2019-05-26T14:32:23.892Z,98317.06
2019-05-26T14:34:57.886Z,98319.68
2019-05-26T14:37:31.982Z,98323.36
2019-05-26T14:40:06.360Z,98328.02
2019-05-26T14:42:40.323Z,98319.52
2019-05-26T14:45:14.160Z,98321.13
2019-05-26T14:47:48.336Z,98325.19
2019-05-26T14:50:22.652Z,98328.69
2019-05-26T14:52:58.841Z,98334.38
2019-05-26T14:55:32.878Z,98339.59
2019-05-26T14:58:15.901Z,98332.45
2019-05-26T15:00:43.157Z,98342.02
2019-05-26T15:03:17.557Z,98340.63
2019-05-26T15:06:05.124Z,98341.98
2019-05-26T15:08:27.990Z,98341.38
2019-05-26T15:11:02.083Z,98344.36
2019-05-26T15:13:36.113Z,98347.08
2019-05-26T15:16:10.693Z,98348.98
2019-05-26T15:18:44.925Z,98352.52
2019-05-26T15:21:19.186Z,98354.66
2019-05-26T15:23:52.850Z,98349.20
2019-05-26T15:26:26.964Z,98357.45
2019-05-26T15:29:00.691Z,98353.89
2019-05-26T15:31:34.792Z,98357.16
2019-05-26T15:34:09.208Z,98355.19
2019-05-26T15:36:43.363Z,98358.73
2019-05-26T15:39:17.393Z,98360.08
2019-05-26T15:41:51.383Z,98365.80
2019-05-26T15:44:25.790Z,98363.02
2019-05-26T15:47:00.038Z,98368.18
2019-05-26T15:49:34.166Z,98368.24
2019-05-26T15:52:08.387Z,98375.36
2019-05-26T15:54:42.222Z,98379.75
2019-05-26T15:57:16.271Z,98377.02
2019-05-26T15:59:50.304Z,98375.08
2019-05-26T16:02:24.671Z,98384.07
2019-05-26T16:04:59.131Z,98379.14
2019-05-26T16:07:33.533Z,98383.50
2019-05-26T16:10:08.038Z,98381.03
2019-05-26T16:12:41.998Z,98384.59
2019-05-26T16:15:16.412Z,98385.39
2019-05-26T16:17:50.440Z,98388.39
2019-05-26T16:20:24.378Z,98395.02
2019-05-26T16:23:01.518Z,98396.38
2019-05-26T16:25:35.554Z,98398.88
2019-05-26T16:28:09.737Z,98393.45
2019-05-26T16:30:43.721Z,98403.00
2019-05-26T16:33:17.991Z,98396.14
2019-05-26T16:35:55.385Z,98394.75
2019-05-26T16:38:27.790Z,98403.72
2019-05-26T16:41:01.739Z,98404.52
2019-05-26T16:43:35.624Z,98399.88
2019-05-26T16:46:09.891Z,98397.73
2019-05-26T16:48:43.867Z,98402.38
2019-05-26T16:51:17.863Z,98404.03
2019-05-26T16:53:52.109Z,98402.38
2019-05-26T16:56:26.171Z,98402.38
2019-05-26T16:59:00.452Z,98396.62
2019-05-26T17:01:34.648Z,98396.88
2019-05-26T17:04:08.535Z,98395.02
2019-05-26T17:06:42.496Z,98396.95
2019-05-26T17:09:16.352Z,98397.30
2019-05-26T17:11:50.403Z,98395.89
2019-05-26T17:14:25.657Z,98394.00
2019-05-26T17:17:13.459Z,98394.04
2019-05-26T17:19:35.159Z,98391.88
2019-05-26T17:22:09.191Z,98389.63
2019-05-26T17:24:43.247Z,98386.85
2019-05-26T17:27:17.384Z,98384.60
2019-05-26T17:29:51.365Z,98382.38
2019-05-26T17:32:25.402Z,98379.88
2019-05-26T17:34:59.464Z,98381.27
2019-05-26T17:37:33.490Z,98379.61
2019-05-26T17:40:08.376Z,98382.93
2019-05-26T17:42:42.655Z,98379.09
2019-05-26T17:45:16.636Z,98377.75
2019-05-26T17:47:50.714Z,98376.36
2019-05-26T17:50:25.136Z,98372.26
2019-05-26T17:52:59.153Z,98375.26
2019-05-26T17:55:33.238Z,98367.84
2019-05-26T17:58:07.239Z,98365.11
2019-05-26T18:00:41.194Z,98366.73
2019-05-26T18:03:15.430Z,98362.11
2019-05-26T18:05:49.717Z,98363.23
2019-05-26T18:08:23.762Z,98358.08
2019-05-26T18:10:57.727Z,98361.36
2019-05-26T18:13:31.819Z,98359.02
2019-05-26T18:16:05.913Z,98353.47
2019-05-26T18:18:40.093Z,98354.95
2019-05-26T18:21:14.675Z,98352.38
2019-05-26T18:23:48.733Z,98347.09
2019-05-26T18:26:22.884Z,98350.29
2019-05-26T18:28:56.711Z,98350.81
2019-05-26T18:31:31.104Z,98346.70
2019-05-26T18:34:05.125Z,98343.41
2019-05-26T18:36:39.571Z,98338.49
2019-05-26T18:39:13.399Z,98340.13
2019-05-26T18:41:48.002Z,98341.80
2019-05-26T18:44:22.019Z,98343.22
2019-05-26T18:46:56.356Z,98341.30
2019-05-26T18:49:34.811Z,98335.28
2019-05-26T18:52:09.290Z,98334.20
2019-05-26T18:54:43.426Z,98329.57
2019-05-26T18:57:17.499Z,98332.90
2019-05-26T18:59:51.631Z,98327.16
2019-05-26T19:02:25.551Z,98322.27
2019-05-26T19:04:59.777Z,98318.37
2019-05-26T19:07:33.900Z,98320.98
2019-05-26T19:10:08.227Z,98318.72
2019-05-26T19:12:42.240Z,98321.95
2019-05-26T19:15:16.547Z,98314.58
2019-05-26T19:17:50.620Z,98310.97
2019-05-26T19:20:25.248Z,98311.78
2019-05-26T19:22:59.395Z,98310.09
2019-05-26T19:25:33.507Z,98310.66
2019-05-26T19:28:07.941Z,98304.33
2019-05-26T19:30:45.474Z,98304.95
2019-05-26T19:33:18.171Z,98299.39
2019-05-26T19:35:52.313Z,98298.19
2019-05-26T19:38:26.384Z,98295.05
2019-05-26T19:41:00.515Z,98294.69
2019-05-26T19:43:34.585Z,98295.78
2019-05-26T19:46:08.632Z,98287.84
2019-05-26T19:48:42.791Z,98297.14
2019-05-26T19:51:16.947Z,98292.75
2019-05-26T19:53:50.966Z,98289.30
2019-05-26T19:56:25.382Z,98285.70
2019-05-26T19:58:59.611Z,98283.00
2019-05-26T20:01:34.045Z,98284.58
2019-05-26T20:04:08.240Z,98284.58
2019-05-26T20:06:43.997Z,98284.84
2019-05-26T20:09:18.581Z,98283.73
2019-05-26T20:11:52.776Z,98283.48
2019-05-26T20:14:26.982Z,98284.24
2019-05-26T20:17:01.076Z,98275.72
2019-05-26T20:19:35.496Z,98277.92
2019-05-26T20:22:09.867Z,98274.92
2019-05-26T20:24:43.788Z,98277.94
2019-05-26T20:27:17.997Z,98269.83
2019-05-26T20:29:52.007Z,98271.27
2019-05-26T20:32:26.014Z,98280.28
2019-05-26T20:35:00.167Z,98284.11
2019-05-26T20:37:34.442Z,98276.43
2019-05-26T20:40:08.976Z,98278.55
2019-05-26T20:42:43.169Z,98285.77
2019-05-26T20:45:17.407Z,98278.45
2019-05-26T20:47:51.582Z,98278.50
2019-05-26T20:50:29.686Z,98274.73
2019-05-26T20:53:01.699Z,98275.30
2019-05-26T20:55:36.939Z,98281.11
2019-05-26T20:58:10.999Z,98278.92
2019-05-26T21:00:45.127Z,98280.34
2019-05-26T21:03:19.205Z,98273.45
2019-05-26T21:05:53.477Z,98281.96
2019-05-26T21:08:27.706Z,98275.22
2019-05-26T21:11:01.688Z,98284.03
2019-05-26T21:13:35.911Z,98283.00
2019-05-26T21:16:10.103Z,98282.45
2019-05-26T21:18:44.124Z,98279.20
2019-05-26T21:21:19.218Z,98274.20
2019-05-26T21:23:53.355Z,98276.58
2019-05-26T21:26:29.758Z,98277.27
2019-05-26T21:29:05.028Z,98273.52
2019-05-26T21:31:39.201Z,98283.93
2019-05-26T21:34:13.201Z,98287.05
2019-05-26T21:36:47.288Z,98282.13
2019-05-26T21:39:21.358Z,98284.41
2019-05-26T21:41:55.607Z,98288.65
2019-05-26T21:44:29.695Z,98283.65
2019-05-26T21:47:03.945Z,98277.02
2019-05-26T21:49:37.993Z,98282.19
2019-05-26T21:52:12.092Z,98285.95
2019-05-26T21:54:46.141Z,98287.25
2019-05-26T21:57:20.141Z,98287.25
2019-05-26T21:59:54.173Z,98290.53
2019-05-26T22:02:28.474Z,98289.47
2019-05-26T22:05:02.601Z,98286.67
2019-05-26T22:07:36.744Z,98298.36
2019-05-26T22:10:11.128Z,98293.92
2019-05-26T22:12:45.024Z,98296.26
2019-05-26T22:15:19.453Z,98297.16
2019-05-26T22:17:53.738Z,98300.77
2019-05-26T22:20:28.028Z,98305.03
2019-05-26T22:23:05.182Z,98309.69
2019-05-26T22:25:39.095Z,98313.08
2019-05-26T22:28:13.286Z,98312.47
2019-05-26T22:30:47.165Z,98306.63
2019-05-26T22:33:21.526Z,98310.09
2019-05-26T22:35:55.484Z,98308.47
2019-05-26T22:38:30.798Z,98302.43
2019-05-26T22:41:05.009Z,98304.83
2019-05-26T22:43:39.144Z,98314.42
2019-05-26T22:46:13.305Z,98314.75
2019-05-26T22:48:47.530Z,98321.34
2019-05-26T22:51:21.753Z,98319.94
2019-05-26T22:53:55.738Z,98324.04
2019-05-26T22:56:29.747Z,98321.08
2019-05-26T22:59:04.070Z,98325.24
2019-05-26T23:01:38.237Z,98323.36
2019-05-26T23:04:12.699Z,98322.52
2019-05-26T23:06:46.794Z,98321.70
2019-05-26T23:09:20.972Z,98323.06
2019-05-26T23:11:55.107Z,98327.97
2019-05-26T23:14:29.376Z,98328.46
2019-05-26T23:17:03.269Z,98330.96
2019-05-26T23:19:37.786Z,98329.83
2019-05-26T23:22:11.875Z,98341.55
2019-05-26T23:24:45.884Z,98343.88
2019-05-26T23:27:20.100Z,98334.75
2019-05-26T23:29:54.173Z,98339.16
2019-05-26T23:32:30.896Z,98335.89
2019-05-26T23:35:05.562Z,98339.02
2019-05-26T23:37:39.733Z,98345.81
2019-05-26T23:40:13.919Z,98344.25
2019-05-26T23:42:48.146Z,98341.97
2019-05-26T23:45:22.455Z,98347.09
2019-05-26T23:47:56.733Z,98349.53
2019-05-26T23:50:30.920Z,98356.28
2019-05-26T23:53:05.264Z,98349.94
2019-05-26T23:55:39.349Z,98357.86
2019-05-26T23:58:13.395Z,98358.94
